sensor_id;sensor_type;location;lat;lon;timestamp;temperature;humidity
80931;DHT22;70388;42.698;23.324;2023-10-13T00:00:27;13.50;63.90
80931;DHT22;70388;42.698;23.324;2023-10-13T00:02:57;13.40;64.70
80931;DHT22;70388;42.698;23.324;2023-10-13T00:05:29;13.40;65.00
80931;DHT22;70388;42.698;23.324;2023-10-13T00:07:57;13.30;65.50
80931;DHT22;70388;42.698;23.324;2023-10-13T00:10:32;13.10;66.20
80931;DHT22;70388;42.698;23.324;2023-10-13T00:12:59;13.00;66.50
80931;DHT22;70388;42.698;23.324;2023-10-13T00:15:38;12.90;67.00
80931;DHT22;70388;42.698;23.324;2023-10-13T00:18:06;12.80;66.90
80931;DHT22;70388;42.698;23.324;2023-10-13T00:20:40;13.10;66.30
80931;DHT22;70388;42.698;23.324;2023-10-13T00:23:05;13.20;66.00
80931;DHT22;70388;42.698;23.324;2023-10-13T00:25:32;13.30;65.30
80931;DHT22;70388;42.698;23.324;2023-10-13T00:28:09;13.30;64.90
80931;DHT22;70388;42.698;23.324;2023-10-13T00:30:35;13.40;64.60
80931;DHT22;70388;42.698;23.324;2023-10-13T00:33:02;13.40;64.30
80931;DHT22;70388;42.698;23.324;2023-10-13T00:35:29;13.50;64.00
80931;DHT22;70388;42.698;23.324;2023-10-13T00:38:04;13.60;63.40
80931;DHT22;70388;42.698;23.324;2023-10-13T00:40:41;13.50;63.30
80931;DHT22;70388;42.698;23.324;2023-10-13T00:43:08;13.50;63.60
80931;DHT22;70388;42.698;23.324;2023-10-13T00:46:03;13.50;63.50
80931;DHT22;70388;42.698;23.324;2023-10-13T00:48:31;13.50;63.10
80931;DHT22;70388;42.698;23.324;2023-10-13T00:51:05;13.50;63.00
80931;DHT22;70388;42.698;23.324;2023-10-13T00:53:38;13.50;63.90
80931;DHT22;70388;42.698;23.324;2023-10-13T00:56:07;13.50;62.60
80931;DHT22;70388;42.698;23.324;2023-10-13T00:58:34;13.50;62.20
80931;DHT22;70388;42.698;23.324;2023-10-13T01:01:03;13.50;62.50
80931;DHT22;70388;42.698;23.324;2023-10-13T01:03:49;13.50;62.30
80931;DHT22;70388;42.698;23.324;2023-10-13T01:06:19;13.50;62.40
80931;DHT22;70388;42.698;23.324;2023-10-13T01:08:48;13.50;62.40
80931;DHT22;70388;42.698;23.324;2023-10-13T01:11:20;13.50;62.60
80931;DHT22;70388;42.698;23.324;2023-10-13T01:13:49;13.50;62.70
80931;DHT22;70388;42.698;23.324;2023-10-13T01:16:20;13.50;62.70
80931;DHT22;70388;42.698;23.324;2023-10-13T01:18:53;13.50;62.90
80931;DHT22;70388;42.698;23.324;2023-10-13T01:21:19;13.40;62.90
80931;DHT22;70388;42.698;23.324;2023-10-13T01:23:46;13.50;62.70
80931;DHT22;70388;42.698;23.324;2023-10-13T01:26:13;13.50;63.40
80931;DHT22;70388;42.698;23.324;2023-10-13T01:28:50;13.50;62.30
80931;DHT22;70388;42.698;23.324;2023-10-13T01:31:17;13.30;62.60
80931;DHT22;70388;42.698;23.324;2023-10-13T01:33:54;13.30;62.80
80931;DHT22;70388;42.698;23.324;2023-10-13T01:36:21;13.30;62.90
80931;DHT22;70388;42.698;23.324;2023-10-13T01:38:48;13.30;62.70
80931;DHT22;70388;42.698;23.324;2023-10-13T01:41:14;13.30;62.40
80931;DHT22;70388;42.698;23.324;2023-10-13T01:43:40;13.30;62.40
80931;DHT22;70388;42.698;23.324;2023-10-13T01:46:06;13.20;62.60
80931;DHT22;70388;42.698;23.324;2023-10-13T01:48:31;13.10;63.00
80931;DHT22;70388;42.698;23.324;2023-10-13T01:51:04;13.20;62.80
80931;DHT22;70388;42.698;23.324;2023-10-13T01:53:31;13.20;62.40
80931;DHT22;70388;42.698;23.324;2023-10-13T01:55:57;13.20;62.50
80931;DHT22;70388;42.698;23.324;2023-10-13T01:58:24;13.10;62.90
80931;DHT22;70388;42.698;23.324;2023-10-13T02:00:51;12.80;64.20
80931;DHT22;70388;42.698;23.324;2023-10-13T02:03:17;12.60;65.20
80931;DHT22;70388;42.698;23.324;2023-10-13T02:05:48;12.60;65.20
80931;DHT22;70388;42.698;23.324;2023-10-13T02:08:18;12.70;64.90
80931;DHT22;70388;42.698;23.324;2023-10-13T02:10:51;12.90;64.30
80931;DHT22;70388;42.698;23.324;2023-10-13T02:13:18;12.90;63.70
80931;DHT22;70388;42.698;23.324;2023-10-13T02:15:48;12.90;63.40
80931;DHT22;70388;42.698;23.324;2023-10-13T02:18:18;12.90;63.40
80931;DHT22;70388;42.698;23.324;2023-10-13T02:21:08;12.80;63.50
80931;DHT22;70388;42.698;23.324;2023-10-13T02:23:40;12.90;63.70
80931;DHT22;70388;42.698;23.324;2023-10-13T02:26:25;12.90;63.50
80931;DHT22;70388;42.698;23.324;2023-10-13T02:29:01;12.80;63.50
80931;DHT22;70388;42.698;23.324;2023-10-13T02:31:32;12.80;63.70
80931;DHT22;70388;42.698;23.324;2023-10-13T02:33:59;12.80;63.50
80931;DHT22;70388;42.698;23.324;2023-10-13T02:36:25;12.80;63.50
80931;DHT22;70388;42.698;23.324;2023-10-13T02:39:05;12.80;63.60
80931;DHT22;70388;42.698;23.324;2023-10-13T02:41:35;12.70;63.70
80931;DHT22;70388;42.698;23.324;2023-10-13T02:44:04;12.70;63.70
80931;DHT22;70388;42.698;23.324;2023-10-13T02:46:34;12.80;63.50
80931;DHT22;70388;42.698;23.324;2023-10-13T02:49:06;12.80;63.20
80931;DHT22;70388;42.698;23.324;2023-10-13T02:51:36;12.80;63.00
80931;DHT22;70388;42.698;23.324;2023-10-13T02:54:04;12.70;63.20
80931;DHT22;70388;42.698;23.324;2023-10-13T02:56:36;12.50;63.60
80931;DHT22;70388;42.698;23.324;2023-10-13T02:59:02;12.40;64.30
80931;DHT22;70388;42.698;23.324;2023-10-13T03:01:34;12.30;64.80
80931;DHT22;70388;42.698;23.324;2023-10-13T03:04:04;12.20;65.10
80931;DHT22;70388;42.698;23.324;2023-10-13T03:06:34;12.20;65.10
80931;DHT22;70388;42.698;23.324;2023-10-13T03:09:08;12.20;65.20
80931;DHT22;70388;42.698;23.324;2023-10-13T03:11:44;12.30;65.20
80931;DHT22;70388;42.698;23.324;2023-10-13T03:14:21;12.20;65.10
80931;DHT22;70388;42.698;23.324;2023-10-13T03:17:01;12.20;65.40
80931;DHT22;70388;42.698;23.324;2023-10-13T03:19:28;12.20;65.20
80931;DHT22;70388;42.698;23.324;2023-10-13T03:21:59;12.20;65.00
80931;DHT22;70388;42.698;23.324;2023-10-13T03:24:32;12.10;65.30
80931;DHT22;70388;42.698;23.324;2023-10-13T03:27:02;12.00;65.90
80931;DHT22;70388;42.698;23.324;2023-10-13T03:29:36;12.00;66.20
80931;DHT22;70388;42.698;23.324;2023-10-13T03:32:04;11.90;66.40
80931;DHT22;70388;42.698;23.324;2023-10-13T03:34:37;11.90;66.60
80931;DHT22;70388;42.698;23.324;2023-10-13T03:37:07;11.90;66.70
80931;DHT22;70388;42.698;23.324;2023-10-13T03:39:44;12.00;66.30
80931;DHT22;70388;42.698;23.324;2023-10-13T03:42:11;12.00;66.40
80931;DHT22;70388;42.698;23.324;2023-10-13T03:44:47;12.00;66.30
80931;DHT22;70388;42.698;23.324;2023-10-13T03:47:13;12.10;66.00
80931;DHT22;70388;42.698;23.324;2023-10-13T03:49:53;12.10;65.70
80931;DHT22;70388;42.698;23.324;2023-10-13T03:52:39;11.80;67.60
80931;DHT22;70388;42.698;23.324;2023-10-13T03:55:05;11.50;69.00
80931;DHT22;70388;42.698;23.324;2023-10-13T03:57:31;11.30;70.30
80931;DHT22;70388;42.698;23.324;2023-10-13T04:00:04;11.20;71.40
80931;DHT22;70388;42.698;23.324;2023-10-13T04:02:47;11.20;71.70
80931;DHT22;70388;42.698;23.324;2023-10-13T04:05:18;11.20;71.50
80931;DHT22;70388;42.698;23.324;2023-10-13T04:08:04;11.30;70.80
80931;DHT22;70388;42.698;23.324;2023-10-13T04:10:49;11.50;70.00
80931;DHT22;70388;42.698;23.324;2023-10-13T04:13:18;11.60;69.40
80931;DHT22;70388;42.698;23.324;2023-10-13T04:16:16;11.60;69.30
80931;DHT22;70388;42.698;23.324;2023-10-13T04:18:48;11.70;68.80
80931;DHT22;70388;42.698;23.324;2023-10-13T04:21:22;11.80;67.90
80931;DHT22;70388;42.698;23.324;2023-10-13T04:24:08;11.80;67.40
80931;DHT22;70388;42.698;23.324;2023-10-13T04:26:50;11.90;66.90
80931;DHT22;70388;42.698;23.324;2023-10-13T04:29:45;11.90;66.90
80931;DHT22;70388;42.698;23.324;2023-10-13T04:32:17;11.90;66.90
80931;DHT22;70388;42.698;23.324;2023-10-13T04:34:59;11.80;66.90
80931;DHT22;70388;42.698;23.324;2023-10-13T04:37:39;11.80;67.30
80931;DHT22;70388;42.698;23.324;2023-10-13T04:40:25;11.80;67.40
80931;DHT22;70388;42.698;23.324;2023-10-13T04:42:52;11.80;67.40
80931;DHT22;70388;42.698;23.324;2023-10-13T04:45:30;11.70;67.80
80931;DHT22;70388;42.698;23.324;2023-10-13T04:47:56;11.70;67.80
80931;DHT22;70388;42.698;23.324;2023-10-13T04:50:24;11.80;67.60
80931;DHT22;70388;42.698;23.324;2023-10-13T04:53:00;11.80;67.40
80931;DHT22;70388;42.698;23.324;2023-10-13T04:55:39;11.80;67.00
80931;DHT22;70388;42.698;23.324;2023-10-13T04:58:25;11.70;67.50
80931;DHT22;70388;42.698;23.324;2023-10-13T05:01:14;11.50;68.20
80931;DHT22;70388;42.698;23.324;2023-10-13T05:04:09;11.60;68.10
80931;DHT22;70388;42.698;23.324;2023-10-13T05:06:40;11.60;67.90
80931;DHT22;70388;42.698;23.324;2023-10-13T05:09:09;11.60;67.90
80931;DHT22;70388;42.698;23.324;2023-10-13T05:11:53;11.60;67.70
80931;DHT22;70388;42.698;23.324;2023-10-13T05:14:38;11.80;67.30
80931;DHT22;70388;42.698;23.324;2023-10-13T05:17:23;11.80;67.10
80931;DHT22;70388;42.698;23.324;2023-10-13T05:20:08;11.80;67.00
80931;DHT22;70388;42.698;23.324;2023-10-13T05:22:52;11.90;66.90
80931;DHT22;70388;42.698;23.324;2023-10-13T05:25:37;11.90;66.90
80931;DHT22;70388;42.698;23.324;2023-10-13T05:28:22;11.90;67.00
80931;DHT22;70388;42.698;23.324;2023-10-13T05:31:07;12.00;66.60
80931;DHT22;70388;42.698;23.324;2023-10-13T05:33:52;12.10;66.30
80931;DHT22;70388;42.698;23.324;2023-10-13T05:36:36;12.10;66.20
80931;DHT22;70388;42.698;23.324;2023-10-13T05:39:20;12.10;66.50
80931;DHT22;70388;42.698;23.324;2023-10-13T05:42:04;12.20;66.50
80931;DHT22;70388;42.698;23.324;2023-10-13T05:44:49;12.20;66.30
80931;DHT22;70388;42.698;23.324;2023-10-13T05:47:33;12.30;66.10
80931;DHT22;70388;42.698;23.324;2023-10-13T05:50:25;12.40;65.80
80931;DHT22;70388;42.698;23.324;2023-10-13T05:52:50;12.40;65.80
80931;DHT22;70388;42.698;23.324;2023-10-13T05:55:25;12.50;65.80
80931;DHT22;70388;42.698;23.324;2023-10-13T05:58:09;12.50;65.10
80931;DHT22;70388;42.698;23.324;2023-10-13T06:00:56;12.70;64.40
80931;DHT22;70388;42.698;23.324;2023-10-13T06:03:41;12.80;63.70
80931;DHT22;70388;42.698;23.324;2023-10-13T06:06:25;12.90;62.90
80931;DHT22;70388;42.698;23.324;2023-10-13T06:09:09;13.00;62.40
80931;DHT22;70388;42.698;23.324;2023-10-13T06:11:53;13.00;61.80
80931;DHT22;70388;42.698;23.324;2023-10-13T06:14:37;13.00;61.80
80931;DHT22;70388;42.698;23.324;2023-10-13T06:17:22;12.90;62.20
80931;DHT22;70388;42.698;23.324;2023-10-13T06:20:06;13.00;62.00
80931;DHT22;70388;42.698;23.324;2023-10-13T06:22:51;13.00;61.90
80931;DHT22;70388;42.698;23.324;2023-10-13T06:25:35;13.10;61.70
80931;DHT22;70388;42.698;23.324;2023-10-13T06:28:19;13.20;61.30
80931;DHT22;70388;42.698;23.324;2023-10-13T06:31:05;13.30;61.00
80931;DHT22;70388;42.698;23.324;2023-10-13T06:33:34;13.40;60.90
80931;DHT22;70388;42.698;23.324;2023-10-13T06:36:03;13.40;60.90
80931;DHT22;70388;42.698;23.324;2023-10-13T06:38:35;13.40;60.90
80931;DHT22;70388;42.698;23.324;2023-10-13T06:41:06;13.50;60.90
80931;DHT22;70388;42.698;23.324;2023-10-13T06:43:36;13.60;60.60
80931;DHT22;70388;42.698;23.324;2023-10-13T06:46:06;13.70;60.30
80931;DHT22;70388;42.698;23.324;2023-10-13T06:48:33;13.70;59.90
80931;DHT22;70388;42.698;23.324;2023-10-13T06:51:01;13.80;59.60
80931;DHT22;70388;42.698;23.324;2023-10-13T06:53:31;13.90;59.40
80931;DHT22;70388;42.698;23.324;2023-10-13T06:56:06;14.00;59.00
80931;DHT22;70388;42.698;23.324;2023-10-13T06:58:32;14.10;58.80
80931;DHT22;70388;42.698;23.324;2023-10-13T07:00:58;14.20;58.70
80931;DHT22;70388;42.698;23.324;2023-10-13T07:03:24;14.30;58.40
80931;DHT22;70388;42.698;23.324;2023-10-13T07:05:50;14.40;58.10
80931;DHT22;70388;42.698;23.324;2023-10-13T07:08:17;14.50;57.60
80931;DHT22;70388;42.698;23.324;2023-10-13T07:10:54;14.70;57.10
80931;DHT22;70388;42.698;23.324;2023-10-13T07:13:34;14.70;57.00
80931;DHT22;70388;42.698;23.324;2023-10-13T07:16:04;14.70;57.10
80931;DHT22;70388;42.698;23.324;2023-10-13T07:18:39;14.90;56.40
80931;DHT22;70388;42.698;23.324;2023-10-13T07:21:27;15.10;55.90
80931;DHT22;70388;42.698;23.324;2023-10-13T07:23:59;15.30;55.30
80931;DHT22;70388;42.698;23.324;2023-10-13T07:26:35;15.40;54.90
80931;DHT22;70388;42.698;23.324;2023-10-13T07:29:08;15.60;54.50
80931;DHT22;70388;42.698;23.324;2023-10-13T07:31:34;15.70;53.70
80931;DHT22;70388;42.698;23.324;2023-10-13T07:34:00;15.90;53.30
80931;DHT22;70388;42.698;23.324;2023-10-13T07:36:30;16.00;53.10
80931;DHT22;70388;42.698;23.324;2023-10-13T07:39:05;16.10;53.00
80931;DHT22;70388;42.698;23.324;2023-10-13T07:41:48;16.40;52.10
80931;DHT22;70388;42.698;23.324;2023-10-13T07:44:18;16.60;51.10
80931;DHT22;70388;42.698;23.324;2023-10-13T07:46:46;16.80;50.80
80931;DHT22;70388;42.698;23.324;2023-10-13T07:49:26;17.40;50.00
80931;DHT22;70388;42.698;23.324;2023-10-13T07:52:00;18.90;46.20
80931;DHT22;70388;42.698;23.324;2023-10-13T07:54:44;20.40;41.60
80931;DHT22;70388;42.698;23.324;2023-10-13T07:57:17;21.60;38.50
80931;DHT22;70388;42.698;23.324;2023-10-13T07:59:44;22.20;37.00
80931;DHT22;70388;42.698;23.324;2023-10-13T08:02:15;22.30;36.80
80931;DHT22;70388;42.698;23.324;2023-10-13T08:05:01;23.20;35.40
80931;DHT22;70388;42.698;23.324;2023-10-13T08:07:26;24.70;32.60
80931;DHT22;70388;42.698;23.324;2023-10-13T08:09:54;25.70;30.30
80931;DHT22;70388;42.698;23.324;2023-10-13T08:12:24;26.50;29.50
80931;DHT22;70388;42.698;23.324;2023-10-13T08:14:50;27.50;28.40
80931;DHT22;70388;42.698;23.324;2023-10-13T08:17:35;28.30;27.10
80931;DHT22;70388;42.698;23.324;2023-10-13T08:20:00;29.30;26.20
80931;DHT22;70388;42.698;23.324;2023-10-13T08:22:36;29.60;25.70
80931;DHT22;70388;42.698;23.324;2023-10-13T08:25:04;29.80;25.10
80931;DHT22;70388;42.698;23.324;2023-10-13T08:27:49;29.60;25.20
80931;DHT22;70388;42.698;23.324;2023-10-13T08:30:14;29.30;25.50
80931;DHT22;70388;42.698;23.324;2023-10-13T08:32:54;28.70;25.90
80931;DHT22;70388;42.698;23.324;2023-10-13T08:35:20;28.10;26.70
80931;DHT22;70388;42.698;23.324;2023-10-13T08:37:56;28.10;26.60
80931;DHT22;70388;42.698;23.324;2023-10-13T08:40:27;28.60;26.10
80931;DHT22;70388;42.698;23.324;2023-10-13T08:43:12;29.10;25.50
80931;DHT22;70388;42.698;23.324;2023-10-13T08:45:40;29.40;25.00
80931;DHT22;70388;42.698;23.324;2023-10-13T08:48:12;30.00;24.80
80931;DHT22;70388;42.698;23.324;2023-10-13T08:50:45;29.90;24.60
80931;DHT22;70388;42.698;23.324;2023-10-13T08:53:24;28.90;25.50
80931;DHT22;70388;42.698;23.324;2023-10-13T08:58:57;27.30;27.40
80931;DHT22;70388;42.698;23.324;2023-10-13T09:01:46;27.00;27.90
80931;DHT22;70388;42.698;23.324;2023-10-13T09:04:14;27.60;27.30
80931;DHT22;70388;42.698;23.324;2023-10-13T09:14:40;29.30;25.40
80931;DHT22;70388;42.698;23.324;2023-10-13T09:17:26;29.90;24.80
80931;DHT22;70388;42.698;23.324;2023-10-13T09:20:06;30.20;24.20
80931;DHT22;70388;42.698;23.324;2023-10-13T09:22:50;30.60;24.10
80931;DHT22;70388;42.698;23.324;2023-10-13T09:28:00;30.50;24.00
80931;DHT22;70388;42.698;23.324;2023-10-13T09:30:27;29.70;24.70
80931;DHT22;70388;42.698;23.324;2023-10-13T09:33:04;28.60;26.00
80931;DHT22;70388;42.698;23.324;2023-10-13T09:35:44;29.20;25.70
80931;DHT22;70388;42.698;23.324;2023-10-13T09:38:15;30.10;24.90
80931;DHT22;70388;42.698;23.324;2023-10-13T09:40:42;30.10;24.60
80931;DHT22;70388;42.698;23.324;2023-10-13T09:43:26;30.30;24.40
80931;DHT22;70388;42.698;23.324;2023-10-13T09:45:59;30.50;24.40
80931;DHT22;70388;42.698;23.324;2023-10-13T09:48:39;30.10;24.90
80931;DHT22;70388;42.698;23.324;2023-10-13T09:51:16;29.50;25.30
80931;DHT22;70388;42.698;23.324;2023-10-13T09:54:10;28.80;26.00
80931;DHT22;70388;42.698;23.324;2023-10-13T09:56:54;28.10;26.80
80931;DHT22;70388;42.698;23.324;2023-10-13T09:59:27;27.40;27.60
80931;DHT22;70388;42.698;23.324;2023-10-13T10:02:01;26.90;28.20
80931;DHT22;70388;42.698;23.324;2023-10-13T10:04:35;26.60;28.60
80931;DHT22;70388;42.698;23.324;2023-10-13T10:07:07;26.40;29.00
80931;DHT22;70388;42.698;23.324;2023-10-13T10:09:34;25.50;30.20
80931;DHT22;70388;42.698;23.324;2023-10-13T10:17:56;25.00;31.30
80931;DHT22;70388;42.698;23.324;2023-10-13T10:20:37;25.00;30.80
80931;DHT22;70388;42.698;23.324;2023-10-13T10:23:07;25.20;30.10
80931;DHT22;70388;42.698;23.324;2023-10-13T10:25:38;25.20;30.20
80931;DHT22;70388;42.698;23.324;2023-10-13T10:28:10;25.30;29.90
80931;DHT22;70388;42.698;23.324;2023-10-13T10:30:41;25.30;30.70
80931;DHT22;70388;42.698;23.324;2023-10-13T10:33:08;25.40;29.00
80931;DHT22;70388;42.698;23.324;2023-10-13T10:35:47;25.40;28.70
80931;DHT22;70388;42.698;23.324;2023-10-13T10:38:19;25.50;28.60
80931;DHT22;70388;42.698;23.324;2023-10-13T10:41:06;25.70;28.50
80931;DHT22;70388;42.698;23.324;2023-10-13T10:46:17;25.80;28.40
80931;DHT22;70388;42.698;23.324;2023-10-13T10:48:43;25.80;27.20
80931;DHT22;70388;42.698;23.324;2023-10-13T10:51:09;25.80;27.70
80931;DHT22;70388;42.698;23.324;2023-10-13T10:53:52;25.70;27.10
80931;DHT22;70388;42.698;23.324;2023-10-13T10:56:22;25.60;27.30
80931;DHT22;70388;42.698;23.324;2023-10-13T10:59:00;25.60;27.40
80931;DHT22;70388;42.698;23.324;2023-10-13T11:01:27;25.60;27.30
80931;DHT22;70388;42.698;23.324;2023-10-13T11:04:06;25.60;27.60
80931;DHT22;70388;42.698;23.324;2023-10-13T11:06:54;25.60;27.80
80931;DHT22;70388;42.698;23.324;2023-10-13T11:09:33;25.30;27.90
80931;DHT22;70388;42.698;23.324;2023-10-13T11:12:09;25.40;28.10
80931;DHT22;70388;42.698;23.324;2023-10-13T11:14:42;25.40;27.80
80931;DHT22;70388;42.698;23.324;2023-10-13T11:17:19;25.40;27.50
80931;DHT22;70388;42.698;23.324;2023-10-13T11:19:50;25.40;27.70
80931;DHT22;70388;42.698;23.324;2023-10-13T11:22:20;25.40;27.60
80931;DHT22;70388;42.698;23.324;2023-10-13T11:25:00;25.30;27.60
80931;DHT22;70388;42.698;23.324;2023-10-13T11:27:32;25.00;27.60
80931;DHT22;70388;42.698;23.324;2023-10-13T11:30:17;25.00;28.20
80931;DHT22;70388;42.698;23.324;2023-10-13T11:33:03;25.10;27.70
80931;DHT22;70388;42.698;23.324;2023-10-13T11:35:32;25.10;27.50
80931;DHT22;70388;42.698;23.324;2023-10-13T11:38:16;25.20;27.80
80931;DHT22;70388;42.698;23.324;2023-10-13T11:43:38;25.10;27.20
80931;DHT22;70388;42.698;23.324;2023-10-13T11:46:07;24.90;27.90
80931;DHT22;70388;42.698;23.324;2023-10-13T11:48:36;24.70;28.20
80931;DHT22;70388;42.698;23.324;2023-10-13T11:51:03;24.80;28.30
80931;DHT22;70388;42.698;23.324;2023-10-13T11:53:36;24.90;28.20
80931;DHT22;70388;42.698;23.324;2023-10-13T11:56:03;24.90;27.80
80931;DHT22;70388;42.698;23.324;2023-10-13T11:58:38;24.90;28.10
80931;DHT22;70388;42.698;23.324;2023-10-13T12:01:05;24.90;27.90
80931;DHT22;70388;42.698;23.324;2023-10-13T12:03:40;24.90;27.80
80931;DHT22;70388;42.698;23.324;2023-10-13T12:06:25;24.90;27.60
80931;DHT22;70388;42.698;23.324;2023-10-13T12:09:01;24.90;27.60
80931;DHT22;70388;42.698;23.324;2023-10-13T12:11:57;24.90;27.10
80931;DHT22;70388;42.698;23.324;2023-10-13T12:14:26;25.00;27.50
80931;DHT22;70388;42.698;23.324;2023-10-13T12:17:18;24.90;26.50
80931;DHT22;70388;42.698;23.324;2023-10-13T12:19:52;24.90;27.20
80931;DHT22;70388;42.698;23.324;2023-10-13T12:22:17;24.90;26.60
80931;DHT22;70388;42.698;23.324;2023-10-13T12:24:52;24.90;26.70
80931;DHT22;70388;42.698;23.324;2023-10-13T12:27:21;25.00;26.20
80931;DHT22;70388;42.698;23.324;2023-10-13T12:29:52;25.00;26.60
80931;DHT22;70388;42.698;23.324;2023-10-13T12:32:19;25.10;26.70
80931;DHT22;70388;42.698;23.324;2023-10-13T12:34:57;25.10;25.80
80931;DHT22;70388;42.698;23.324;2023-10-13T12:37:30;25.10;25.80
80931;DHT22;70388;42.698;23.324;2023-10-13T12:40:10;25.10;25.90
80931;DHT22;70388;42.698;23.324;2023-10-13T12:42:54;25.10;26.80
80931;DHT22;70388;42.698;23.324;2023-10-13T12:45:43;25.00;26.20
80931;DHT22;70388;42.698;23.324;2023-10-13T12:48:27;24.90;26.70
80931;DHT22;70388;42.698;23.324;2023-10-13T12:51:12;24.90;26.60
80931;DHT22;70388;42.698;23.324;2023-10-13T12:54:06;24.80;26.80
80931;DHT22;70388;42.698;23.324;2023-10-13T12:56:46;24.90;26.90
80931;DHT22;70388;42.698;23.324;2023-10-13T12:59:12;25.00;26.40
80931;DHT22;70388;42.698;23.324;2023-10-13T13:01:41;25.00;26.50
80931;DHT22;70388;42.698;23.324;2023-10-13T13:04:10;25.00;27.10
80931;DHT22;70388;42.698;23.324;2023-10-13T13:06:49;24.90;27.70
80931;DHT22;70388;42.698;23.324;2023-10-13T13:09:16;24.90;26.50
80931;DHT22;70388;42.698;23.324;2023-10-13T13:11:54;25.00;27.30
80931;DHT22;70388;42.698;23.324;2023-10-13T13:14:23;24.90;27.00
80931;DHT22;70388;42.698;23.324;2023-10-13T13:16:55;24.90;27.90
80931;DHT22;70388;42.698;23.324;2023-10-13T13:22:00;24.60;27.50
80931;DHT22;70388;42.698;23.324;2023-10-13T13:24:25;24.50;27.00
80931;DHT22;70388;42.698;23.324;2023-10-13T13:26:56;24.40;27.00
80931;DHT22;70388;42.698;23.324;2023-10-13T13:29:22;24.20;27.00
80931;DHT22;70388;42.698;23.324;2023-10-13T13:31:47;24.20;27.40
80931;DHT22;70388;42.698;23.324;2023-10-13T13:34:13;24.20;27.50
80931;DHT22;70388;42.698;23.324;2023-10-13T13:36:39;24.10;27.60
80931;DHT22;70388;42.698;23.324;2023-10-13T13:39:12;24.20;27.90
80931;DHT22;70388;42.698;23.324;2023-10-13T13:41:43;24.30;27.40
80931;DHT22;70388;42.698;23.324;2023-10-13T13:44:09;24.30;27.20
80931;DHT22;70388;42.698;23.324;2023-10-13T13:46:41;24.40;27.70
80931;DHT22;70388;42.698;23.324;2023-10-13T13:49:08;24.40;27.30
80931;DHT22;70388;42.698;23.324;2023-10-13T13:51:44;24.40;27.20
80931;DHT22;70388;42.698;23.324;2023-10-13T13:54:17;24.40;27.30
80931;DHT22;70388;42.698;23.324;2023-10-13T13:56:43;24.30;27.80
80931;DHT22;70388;42.698;23.324;2023-10-13T13:59:09;24.20;27.20
80931;DHT22;70388;42.698;23.324;2023-10-13T14:01:40;24.10;27.60
80931;DHT22;70388;42.698;23.324;2023-10-13T14:04:06;24.20;28.20
80931;DHT22;70388;42.698;23.324;2023-10-13T14:06:32;24.20;28.70
80931;DHT22;70388;42.698;23.324;2023-10-13T14:09:00;24.20;28.90
80931;DHT22;70388;42.698;23.324;2023-10-13T14:11:32;24.20;28.60
80931;DHT22;70388;42.698;23.324;2023-10-13T14:14:14;24.10;28.90
80931;DHT22;70388;42.698;23.324;2023-10-13T14:16:52;24.20;28.90
80931;DHT22;70388;42.698;23.324;2023-10-13T14:19:19;24.10;28.70
80931;DHT22;70388;42.698;23.324;2023-10-13T14:21:53;24.10;28.80
80931;DHT22;70388;42.698;23.324;2023-10-13T14:24:25;24.10;29.40
80931;DHT22;70388;42.698;23.324;2023-10-13T14:27:00;24.00;29.20
80931;DHT22;70388;42.698;23.324;2023-10-13T14:29:38;24.00;29.10
80931;DHT22;70388;42.698;23.324;2023-10-13T14:32:12;23.90;29.50
80931;DHT22;70388;42.698;23.324;2023-10-13T14:34:47;24.00;29.40
80931;DHT22;70388;42.698;23.324;2023-10-13T14:37:19;24.00;29.60
80931;DHT22;70388;42.698;23.324;2023-10-13T14:39:53;23.90;29.90
80931;DHT22;70388;42.698;23.324;2023-10-13T14:42:23;23.80;30.00
80931;DHT22;70388;42.698;23.324;2023-10-13T14:44:49;23.80;30.00
80931;DHT22;70388;42.698;23.324;2023-10-13T14:47:24;23.80;30.10
80931;DHT22;70388;42.698;23.324;2023-10-13T14:49:54;23.80;30.00
80931;DHT22;70388;42.698;23.324;2023-10-13T14:52:29;23.80;30.40
80931;DHT22;70388;42.698;23.324;2023-10-13T14:54:58;23.80;30.60
80931;DHT22;70388;42.698;23.324;2023-10-13T14:57:23;23.80;30.60
80931;DHT22;70388;42.698;23.324;2023-10-13T14:59:56;23.70;30.60
80931;DHT22;70388;42.698;23.324;2023-10-13T15:02:23;23.80;30.70
80931;DHT22;70388;42.698;23.324;2023-10-13T15:04:49;23.80;30.70
80931;DHT22;70388;42.698;23.324;2023-10-13T15:07:16;23.80;30.70
80931;DHT22;70388;42.698;23.324;2023-10-13T15:09:43;23.80;30.80
80931;DHT22;70388;42.698;23.324;2023-10-13T15:12:12;23.80;30.50
80931;DHT22;70388;42.698;23.324;2023-10-13T15:14:39;23.90;30.50
80931;DHT22;70388;42.698;23.324;2023-10-13T15:17:05;23.80;30.90
80931;DHT22;70388;42.698;23.324;2023-10-13T15:19:32;23.80;30.20
80931;DHT22;70388;42.698;23.324;2023-10-13T15:22:04;23.80;30.00
80931;DHT22;70388;42.698;23.324;2023-10-13T15:24:38;23.70;30.00
80931;DHT22;70388;42.698;23.324;2023-10-13T15:27:11;23.60;30.00
80931;DHT22;70388;42.698;23.324;2023-10-13T15:29:37;23.60;30.20
80931;DHT22;70388;42.698;23.324;2023-10-13T15:32:07;23.60;30.10
80931;DHT22;70388;42.698;23.324;2023-10-13T15:34:51;23.50;30.10
80931;DHT22;70388;42.698;23.324;2023-10-13T15:37:17;23.50;30.20
80931;DHT22;70388;42.698;23.324;2023-10-13T15:39:45;23.40;30.30
80931;DHT22;70388;42.698;23.324;2023-10-13T15:42:10;23.20;30.40
80931;DHT22;70388;42.698;23.324;2023-10-13T15:44:36;23.20;30.50
80931;DHT22;70388;42.698;23.324;2023-10-13T15:47:02;23.10;30.60
80931;DHT22;70388;42.698;23.324;2023-10-13T15:49:29;23.10;30.70
80931;DHT22;70388;42.698;23.324;2023-10-13T15:51:55;23.00;30.70
80931;DHT22;70388;42.698;23.324;2023-10-13T15:54:23;22.90;30.80
80931;DHT22;70388;42.698;23.324;2023-10-13T15:56:50;22.90;31.00
80931;DHT22;70388;42.698;23.324;2023-10-13T15:59:20;22.80;31.00
80931;DHT22;70388;42.698;23.324;2023-10-13T16:01:48;22.80;31.00
80931;DHT22;70388;42.698;23.324;2023-10-13T16:04:20;22.70;31.30
80931;DHT22;70388;42.698;23.324;2023-10-13T16:06:46;22.50;31.60
80931;DHT22;70388;42.698;23.324;2023-10-13T16:09:18;22.30;31.90
80931;DHT22;70388;42.698;23.324;2023-10-13T16:11:51;22.20;33.10
80931;DHT22;70388;42.698;23.324;2023-10-13T16:14:17;22.00;33.70
80931;DHT22;70388;42.698;23.324;2023-10-13T16:16:45;21.90;34.10
80931;DHT22;70388;42.698;23.324;2023-10-13T16:19:19;21.80;34.10
80931;DHT22;70388;42.698;23.324;2023-10-13T16:21:49;21.70;34.30